Algoma, Wisconsin
Current Conditions -  °F | °C
As of 11:55 AM on Wednesday 28 Jan 2015 (Local Time) from KSUE Reporting Station
Overcast Overcast  
Wind Chill: 20°   Ceiling: 2000
Heat Index: 28°   Visibility: 10mi
Dew Point: 21°   Wind: 9mph
Humidity: 74%   Direction: 190°S
Pressure: 30.17"   Gusts: NA
Location:  44.61°N, 87.43°W
Report Text: KSUE 281755Z AUTO 19008KT 10SM BKN020 OVC120 M02/M06 A3017 RMK AO1 11020 21080 57027
Loading
Personal Weather Stations






























Interactive Weather Map New forecast layout! Learn more

10-Day Weather Forecast

Advertisements
Track Severe Weather on mobile